Yvoir, Belgium
Current Conditions -  °F | °C
As of 6:55 AM on Thursday 29 Jan 2015 (Local Time) from EBFS Reporting Station
Broken Clouds Broken Clouds  
Wind Chill: 24°   Ceiling: 1000
Heat Index: 34°   Visibility: 6mi
Dew Point: 32°   Wind: 16mph
Humidity: 93%   Direction: 230°SW
Pressure: 29.38"   Gusts: 28mph
Location:  50.33°N, 4.88°E
Report Text: EBFS 290555Z 23014G24KT 9999 FEW006 SCT008 BKN010 01/M00 Q0995 BLACKGRN GRN TEMPO YLO
Loading
Personal Weather Stations






























Interactive Weather Map New forecast layout! Learn more

10-Day Weather Forecast

Advertisements
Track Severe Weather on mobile